createdAt,value
2023-01-24T00:00:00.906Z,102213.53
2023-01-24T00:01:03.869Z,102212.66
2023-01-24T00:02:05.757Z,102216.22
2023-01-24T00:03:13.032Z,102215.34
2023-01-24T00:04:14.910Z,102221.53
2023-01-24T00:05:16.751Z,102214.41
2023-01-24T00:06:18.581Z,102210.81
2023-01-24T00:07:21.560Z,102204.63
2023-01-24T00:08:23.996Z,102203.78
2023-01-24T00:09:25.973Z,102204.63
2023-01-24T00:10:27.924Z,102210.81
2023-01-24T00:11:29.857Z,102208.22
2023-01-24T00:12:31.623Z,102214.41
2023-01-24T00:13:35.096Z,102210.81
2023-01-24T00:14:36.944Z,102209.09
2023-01-24T00:15:38.844Z,102216.13
2023-01-24T00:16:40.618Z,102205.88
2023-01-24T00:17:42.462Z,102219.75
2023-01-24T00:18:45.076Z,102218.00
2023-01-24T00:19:46.856Z,102217.91
2023-01-24T00:20:48.635Z,102218.78
2023-01-24T00:21:50.431Z,102218.78
2023-01-24T00:22:52.304Z,102218.06
2023-01-24T00:23:55.588Z,102216.28
2023-01-24T00:24:57.478Z,102235.59
2023-01-24T00:25:59.290Z,102236.47
2023-01-24T00:27:01.184Z,102226.78
2023-01-24T00:28:03.082Z,102232.94
2023-01-24T00:29:05.763Z,102239.13
2023-01-24T00:30:08.036Z,102223.47
2023-01-24T00:31:10.344Z,102242.63
2023-01-24T00:32:12.188Z,102236.47
2023-01-24T00:33:14.701Z,102234.66
2023-01-24T00:34:16.531Z,102239.13
2023-01-24T00:35:18.311Z,102225.81
2023-01-24T00:36:20.268Z,102223.16
2023-01-24T00:37:22.187Z,102226.03
2023-01-24T00:38:24.280Z,102228.38
2023-01-24T00:39:26.236Z,102231.03
2023-01-24T00:40:29.076Z,102230.19
2023-01-24T00:41:31.888Z,102220.50
2023-01-24T00:42:33.664Z,102228.50
2023-01-24T00:43:35.763Z,102214.25
2023-01-24T00:44:37.733Z,102216.03
2023-01-24T00:45:40.198Z,102210.81
2023-01-24T00:46:42.362Z,102196.56
2023-01-24T00:47:44.134Z,102200.00
2023-01-24T00:48:46.195Z,102205.31
2023-01-24T00:49:48.285Z,102204.44
2023-01-24T00:50:50.246Z,102191.56
2023-01-24T00:51:52.183Z,102197.34
2023-01-24T00:52:54.181Z,102203.50
2023-01-24T00:53:56.152Z,102191.13
2023-01-24T00:54:57.922Z,102183.09
2023-01-24T00:55:59.752Z,102188.47
2023-01-24T00:57:01.580Z,102200.84
2023-01-24T00:58:03.359Z,102200.84
2023-01-24T00:59:05.245Z,102210.63
2023-01-24T01:00:08.485Z,102210.63
2023-01-24T01:01:11.324Z,102205.31
2023-01-24T01:02:13.251Z,102216.72
2023-01-24T01:03:18.320Z,102203.91
2023-01-24T01:04:20.172Z,102215.78
2023-01-24T01:05:23.087Z,102212.19
2023-01-24T01:06:25.867Z,102216.72
2023-01-24T01:07:27.732Z,102221.94
2023-01-24T01:08:29.564Z,102219.38
2023-01-24T01:09:31.428Z,102214.13
2023-01-24T01:10:33.268Z,102224.78
2023-01-24T01:11:35.112Z,102212.34
2023-01-24T01:12:37.254Z,102220.22
2023-01-24T01:13:39.548Z,102227.25
2023-01-24T01:14:41.520Z,102227.38
2023-01-24T01:15:43.653Z,102235.34
2023-01-24T01:16:45.513Z,102237.06
2023-01-24T01:17:47.322Z,102235.34
2023-01-24T01:18:50.427Z,102232.75
2023-01-24T01:19:53.211Z,102239.72
2023-01-24T01:20:55.189Z,102228.31
2023-01-24T01:21:57.017Z,102241.44
2023-01-24T01:23:00.836Z,102233.47
2023-01-24T01:24:02.764Z,102240.50
2023-01-24T01:25:05.175Z,102236.94
2023-01-24T01:26:10.103Z,102238.78
2023-01-24T01:27:11.909Z,102244.88
2023-01-24T01:28:13.726Z,102230.72
2023-01-24T01:29:15.539Z,102228.91
2023-01-24T01:30:17.867Z,102217.50
2023-01-24T01:31:19.808Z,102217.84
2023-01-24T01:32:21.686Z,102218.25
2023-01-24T01:33:24.595Z,102215.59
2023-01-24T01:34:26.494Z,102216.38
2023-01-24T01:35:28.350Z,102225.28
2023-01-24T01:36:30.238Z,102210.28
2023-01-24T01:37:32.075Z,102201.34
2023-01-24T01:38:33.965Z,102184.44
2023-01-24T01:39:35.931Z,102201.34
2023-01-24T01:40:37.762Z,102184.97
2023-01-24T01:41:39.635Z,102193.31
2023-01-24T01:42:50.096Z,102196.03
2023-01-24T01:44:10.583Z,102195.84
2023-01-24T01:45:47.946Z,102192.47
2023-01-24T01:46:52.619Z,102197.03
2023-01-24T01:47:55.771Z,102204.25
2023-01-24T01:49:02.470Z,102201.88
2023-01-24T01:50:23.155Z,102206.13
2023-01-24T01:51:38.603Z,102207.84
2023-01-24T01:52:43.536Z,102193.38
2023-01-24T01:53:50.942Z,102212.41
2023-01-24T01:54:56.279Z,102209.75
2023-01-24T01:56:05.880Z,102202.63
2023-01-24T01:57:25.577Z,102205.19
2023-01-24T01:58:28.606Z,102183.91
2023-01-24T01:59:37.204Z,102185.91
2023-01-24T02:00:39.110Z,102192.84
2023-01-24T02:01:43.084Z,102192.06
2023-01-24T02:03:23.605Z,102187.31
2023-01-24T02:04:33.684Z,102192.47
2023-01-24T02:05:35.543Z,102198.75
2023-01-24T02:07:00.673Z,102194.28
2023-01-24T02:08:06.419Z,102199.63
2023-01-24T02:09:11.022Z,102192.75
2023-01-24T02:10:13.620Z,102204.25
2023-01-24T02:11:35.165Z,102193.69
2023-01-24T02:12:43.920Z,102192.66
2023-01-24T02:13:47.623Z,102197.03
2023-01-24T02:15:18.710Z,102195.31
2023-01-24T02:16:20.699Z,102196.84
2023-01-24T02:17:22.664Z,102197.03
2023-01-24T02:18:24.647Z,102189.22
2023-01-24T02:19:39.794Z,102194.66
2023-01-24T02:20:42.803Z,102183.91
2023-01-24T02:21:46.169Z,102187.69
2023-01-24T02:22:47.947Z,102196.38
2023-01-24T02:24:01.985Z,102200.81
2023-01-24T02:25:18.010Z,102198.84
2023-01-24T02:26:28.785Z,102189.03
2023-01-24T02:27:31.081Z,102203.22
2023-01-24T02:28:34.004Z,102204.25
2023-01-24T02:29:35.871Z,102205.19
2023-01-24T02:30:39.496Z,102203.47
2023-01-24T02:31:59.962Z,102213.00
2023-01-24T02:33:13.945Z,102211.09
2023-01-24T02:34:15.715Z,102210.16
2023-01-24T02:35:32.237Z,102200.44
2023-01-24T02:36:42.225Z,102198.09
2023-01-24T02:37:44.519Z,102210.25
2023-01-24T02:38:51.827Z,102216.59
2023-01-24T02:40:05.672Z,102219.19
2023-01-24T02:41:08.770Z,102229.84
2023-01-24T02:42:18.525Z,102226.41
2023-01-24T02:43:26.005Z,102237.88
2023-01-24T02:44:38.332Z,102231.91
2023-01-24T02:45:40.200Z,102239.59
2023-01-24T02:46:45.929Z,102221.50
2023-01-24T02:47:49.828Z,102224.88
2023-01-24T02:48:52.547Z,102221.25
2023-01-24T02:49:54.315Z,102229.13
2023-01-24T02:51:14.670Z,102215.34
2023-01-24T02:52:35.240Z,102227.16
2023-01-24T02:53:37.396Z,102208.97
2023-01-24T02:54:40.657Z,102219.38
2023-01-24T02:56:00.831Z,102229.06
2023-01-24T02:57:22.891Z,102222.63
2023-01-24T02:58:25.204Z,102225.16
2023-01-24T02:59:27.918Z,102223.63
2023-01-24T03:00:30.223Z,102225.53
2023-01-24T03:01:34.299Z,102222.88
2023-01-24T03:02:36.325Z,102207.38
2023-01-24T03:03:38.635Z,102216.97
2023-01-24T03:04:40.483Z,102223.91
2023-01-24T03:05:58.947Z,102229.13
2023-01-24T03:07:05.901Z,102226.22
2023-01-24T03:08:08.619Z,102232.50
2023-01-24T03:09:19.667Z,102228.13
2023-01-24T03:10:24.116Z,102224.41
2023-01-24T03:11:29.027Z,102221.75
2023-01-24T03:12:49.544Z,102228.97
2023-01-24T03:14:09.770Z,102219.84
2023-01-24T03:15:30.605Z,102228.59
2023-01-24T03:16:50.777Z,102223.63
2023-01-24T03:18:11.151Z,102236.44
2023-01-24T03:19:31.702Z,102240.88
2023-01-24T03:20:52.418Z,102235.56
2023-01-24T03:22:14.495Z,102235.50
2023-01-24T03:23:35.158Z,102236.44
2023-01-24T03:24:55.748Z,102232.91
2023-01-24T03:26:17.656Z,102235.66
2023-01-24T03:27:39.219Z,102232.91
2023-01-24T03:29:02.008Z,102223.28
2023-01-24T03:30:24.759Z,102233.78
2023-01-24T03:31:45.349Z,102227.56
2023-01-24T03:33:05.849Z,102223.03
2023-01-24T03:34:26.897Z,102219.53
2023-01-24T03:35:29.359Z,102219.53
2023-01-24T03:36:32.893Z,102220.53
2023-01-24T03:37:55.255Z,102218.91
2023-01-24T03:39:17.371Z,102180.00
2023-01-24T03:40:19.485Z,102215.47
2023-01-24T03:41:22.799Z,102223.28
2023-01-24T03:42:27.744Z,102216.41
2023-01-24T03:43:30.588Z,102220.78
2023-01-24T03:44:32.455Z,102208.63
2023-01-24T03:45:37.464Z,102213.75
2023-01-24T03:46:41.135Z,102212.81
2023-01-24T03:47:57.686Z,102205.69
2023-01-24T03:49:01.048Z,102211.72
2023-01-24T03:50:27.189Z,102208.19
2023-01-24T03:51:47.852Z,102207.94
2023-01-24T03:52:49.783Z,102208.69
2023-01-24T03:53:51.825Z,102198.56
2023-01-24T03:54:58.705Z,102193.94
2023-01-24T03:56:02.589Z,102204.56
2023-01-24T03:57:11.071Z,102199.16
2023-01-24T03:58:13.750Z,102203.72
2023-01-24T03:59:15.655Z,102208.94
2023-01-24T04:00:18.283Z,102203.72
2023-01-24T04:01:26.014Z,102203.72
2023-01-24T04:02:35.098Z,102213.25
2023-01-24T04:03:36.975Z,102207.16
2023-01-24T04:04:57.581Z,102214.44
2023-01-24T04:05:59.564Z,102213.06
2023-01-24T04:07:09.459Z,102216.75
2023-01-24T04:08:20.268Z,102217.44
2023-01-24T04:09:23.071Z,102219.34
2023-01-24T04:10:25.045Z,102211.59
2023-01-24T04:11:27.585Z,102215.91
2023-01-24T04:12:35.252Z,102213.13
2023-01-24T04:13:37.892Z,102212.31
2023-01-24T04:14:39.729Z,102212.31
2023-01-24T04:15:46.629Z,102221.06
2023-01-24T04:17:07.093Z,102202.41
2023-01-24T04:18:24.331Z,102204.72
2023-01-24T04:19:26.653Z,102197.16
2023-01-24T04:20:31.259Z,102207.63
2023-01-24T04:21:33.115Z,102202.25
2023-01-24T04:22:35.093Z,102197.34
2023-01-24T04:23:38.632Z,102205.06
2023-01-24T04:24:40.426Z,102220.00
2023-01-24T04:25:42.415Z,102209.34
2023-01-24T04:26:44.383Z,102199.94
2023-01-24T04:27:52.537Z,102174.03
2023-01-24T04:29:00.427Z,102211.75
2023-01-24T04:30:02.208Z,102215.25
2023-01-24T04:31:07.459Z,102211.75
2023-01-24T04:32:35.654Z,102220.22
2023-01-24T04:34:01.324Z,102219.13
2023-01-24T04:35:06.988Z,102214.81
2023-01-24T04:36:23.761Z,102212.22
2023-01-24T04:37:25.757Z,102228.13
2023-01-24T04:38:27.609Z,102223.75
2023-01-24T04:39:37.557Z,102220.13
2023-01-24T04:40:46.825Z,102212.16
2023-01-24T04:41:50.217Z,102225.47
2023-01-24T04:42:52.010Z,102226.41
2023-01-24T04:43:53.922Z,102228.19
2023-01-24T04:44:55.928Z,102218.22
2023-01-24T04:45:59.171Z,102239.78
2023-01-24T04:47:09.542Z,102246.75
2023-01-24T04:48:11.423Z,102249.41
2023-01-24T04:49:13.322Z,102249.59
2023-01-24T04:50:22.511Z,102255.63
2023-01-24T04:51:24.439Z,102254.75
2023-01-24T04:52:27.266Z,102259.31
2023-01-24T04:53:42.750Z,102262.47
2023-01-24T04:54:48.130Z,102262.56
2023-01-24T04:55:50.784Z,102251.38
2023-01-24T04:56:52.591Z,102251.38
2023-01-24T04:57:54.523Z,102263.50
2023-01-24T04:58:58.681Z,102262.66
2023-01-24T05:00:00.720Z,102257.34
2023-01-24T05:01:04.747Z,102260.00
2023-01-24T05:02:11.459Z,102255.50
2023-01-24T05:03:17.455Z,102253.78
2023-01-24T05:04:19.449Z,102255.50
2023-01-24T05:05:21.639Z,102212.56
2023-01-24T05:06:24.610Z,102246.56
2023-01-24T05:07:27.264Z,102237.41
2023-01-24T05:08:35.331Z,102251.81
2023-01-24T05:09:39.439Z,102257.16
2023-01-24T05:10:44.180Z,102261.59
2023-01-24T05:11:46.215Z,102254.50
2023-01-24T05:12:48.028Z,102254.50
2023-01-24T05:13:54.436Z,102251.72
2023-01-24T05:14:56.606Z,102251.81
2023-01-24T05:15:59.915Z,102250.00
2023-01-24T05:17:01.911Z,102244.09
2023-01-24T05:18:04.510Z,102255.44
2023-01-24T05:19:07.147Z,102250.00
2023-01-24T05:20:11.166Z,102240.66
2023-01-24T05:21:16.267Z,102255.31
2023-01-24T05:22:19.051Z,102253.44
2023-01-24T05:23:20.873Z,102248.22
2023-01-24T05:24:24.970Z,102229.06
2023-01-24T05:25:26.895Z,102237.47
2023-01-24T05:26:29.677Z,102240.13
2023-01-24T05:27:33.143Z,102242.78
2023-01-24T05:28:38.233Z,102238.31
2023-01-24T05:29:40.062Z,102237.47
2023-01-24T05:30:43.889Z,102238.31
2023-01-24T05:32:00.449Z,102241.56
2023-01-24T05:33:02.555Z,102235.75
2023-01-24T05:34:06.288Z,102233.00
2023-01-24T05:35:09.594Z,102247.94
2023-01-24T05:36:18.086Z,102248.81
2023-01-24T05:37:21.133Z,102251.34
2023-01-24T05:38:23.802Z,102266.50
2023-01-24T05:39:25.898Z,102254.97
2023-01-24T05:40:28.544Z,102249.63
2023-01-24T05:41:31.112Z,102254.97
2023-01-24T05:42:34.141Z,102247.94
2023-01-24T05:43:36.340Z,102254.13
2023-01-24T05:44:38.234Z,102242.78
2023-01-24T05:45:40.147Z,102259.44
2023-01-24T05:46:42.824Z,102260.28
2023-01-24T05:47:52.356Z,102247.75
2023-01-24T05:48:54.980Z,102253.06
2023-01-24T05:49:57.898Z,102254.78
2023-01-24T05:51:04.832Z,102243.53
2023-01-24T05:52:07.165Z,102258.41
2023-01-24T05:53:23.219Z,102261.63
2023-01-24T05:54:25.107Z,102249.47
2023-01-24T05:55:34.026Z,102241.66
2023-01-24T05:56:35.847Z,102252.88
2023-01-24T05:57:38.542Z,102250.31
2023-01-24T05:59:03.010Z,102249.09
2023-01-24T06:00:06.100Z,102240.44
2023-01-24T06:01:24.479Z,102242.91
2023-01-24T06:02:28.432Z,102248.25
2023-01-24T06:03:30.484Z,102250.16
2023-01-24T06:04:32.816Z,102248.44
2023-01-24T06:05:34.731Z,102243.28
2023-01-24T06:06:36.948Z,102251.16
2023-01-24T06:07:38.794Z,102256.50
2023-01-24T06:08:41.074Z,102252.88
2023-01-24T06:09:43.400Z,102249.28
2023-01-24T06:10:46.077Z,102245.06
2023-01-24T06:11:48.327Z,102253.56
2023-01-24T06:12:54.471Z,102262.25
2023-01-24T06:13:56.808Z,102249.78
2023-01-24T06:15:01.108Z,102257.50
2023-01-24T06:16:08.512Z,102256.63
2023-01-24T06:17:11.569Z,102262.47
2023-01-24T06:18:15.941Z,102245.91
2023-01-24T06:19:19.800Z,102254.47
2023-01-24T06:20:21.891Z,102261.06
2023-01-24T06:21:41.580Z,102259.16
2023-01-24T06:22:52.031Z,102262.22
2023-01-24T06:23:56.329Z,102256.88
2023-01-24T06:25:02.870Z,102257.19
2023-01-24T06:26:11.997Z,102263.19
2023-01-24T06:27:14.201Z,102256.28
2023-01-24T06:28:16.343Z,102265.59
2023-01-24T06:29:19.600Z,102261.78
2023-01-24T06:30:22.027Z,102260.66
2023-01-24T06:31:45.173Z,102253.22
2023-01-24T06:33:03.913Z,102257.97
2023-01-24T06:34:33.718Z,102262.66
2023-01-24T06:35:58.542Z,102216.94
2023-01-24T06:37:06.472Z,102262.06
2023-01-24T06:38:21.388Z,102269.97
2023-01-24T06:39:23.572Z,102267.88
2023-01-24T06:40:25.889Z,102261.66
2023-01-24T06:41:28.078Z,102264.25
2023-01-24T06:42:30.477Z,102265.00
2023-01-24T06:43:32.732Z,102272.81
2023-01-24T06:44:34.825Z,102267.69
2023-01-24T06:45:37.090Z,102276.81
2023-01-24T06:46:39.060Z,102284.81
2023-01-24T06:47:41.491Z,102290.81
2023-01-24T06:48:45.329Z,102292.41
2023-01-24T06:49:47.180Z,102293.09
2023-01-24T06:50:49.228Z,102287.84
2023-01-24T06:51:52.403Z,102272.03
2023-01-24T06:52:54.675Z,102292.56
2023-01-24T06:53:56.550Z,102300.41
2023-01-24T06:54:58.368Z,102298.59
2023-01-24T06:56:00.921Z,102296.78
2023-01-24T06:57:04.571Z,102303.63
2023-01-24T06:58:06.388Z,102304.41
2023-01-24T06:59:08.230Z,102311.53
2023-01-24T07:00:10.667Z,102315.72
2023-01-24T07:01:12.487Z,102320.84
2023-01-24T07:02:14.291Z,102324.41
2023-01-24T07:03:16.228Z,102332.25
2023-01-24T07:04:18.544Z,102329.56
2023-01-24T07:05:20.795Z,102333.06
2023-01-24T07:06:24.194Z,102338.34
2023-01-24T07:07:26.048Z,102315.91
2023-01-24T07:08:28.104Z,102336.41
2023-01-24T07:09:30.229Z,102344.34
2023-01-24T07:10:32.460Z,102344.22
2023-01-24T07:11:34.385Z,102346.06
2023-01-24T07:12:36.172Z,102345.94
2023-01-24T07:13:38.033Z,102339.75
2023-01-24T07:14:39.962Z,102336.97
2023-01-24T07:15:41.872Z,102329.56
2023-01-24T07:16:43.757Z,102349.38
2023-01-24T07:17:46.078Z,102344.91
2023-01-24T07:18:48.310Z,102337.19
2023-01-24T07:19:50.377Z,102350.13
2023-01-24T07:20:52.545Z,102352.78
2023-01-24T07:21:55.311Z,102357.19
2023-01-24T07:22:57.447Z,102363.41
2023-01-24T07:24:00.303Z,102347.78
2023-01-24T07:25:03.074Z,102351.97
2023-01-24T07:26:05.519Z,102367.78
2023-01-24T07:27:07.753Z,102366.91
2023-01-24T07:28:10.021Z,102371.41
2023-01-24T07:29:12.406Z,102364.16
2023-01-24T07:30:14.676Z,102366.91
2023-01-24T07:31:17.294Z,102365.19
2023-01-24T07:32:19.511Z,102368.63
2023-01-24T07:33:21.795Z,102369.50
2023-01-24T07:34:23.608Z,102375.69
2023-01-24T07:35:25.517Z,102362.63
2023-01-24T07:36:27.424Z,102364.16
2023-01-24T07:37:30.518Z,102361.13
2023-01-24T07:38:32.380Z,102373.00
2023-01-24T07:39:34.221Z,102361.56
2023-01-24T07:40:37.442Z,102363.28
2023-01-24T07:41:41.591Z,102371.22
2023-01-24T07:42:43.467Z,102368.53
2023-01-24T07:43:45.355Z,102370.53
2023-01-24T07:44:47.203Z,102368.53
2023-01-24T07:45:51.761Z,102355.59
2023-01-24T07:46:54.782Z,102365.88
2023-01-24T07:48:00.200Z,102361.56
2023-01-24T07:49:02.709Z,102373.75
2023-01-24T07:50:04.963Z,102367.56
2023-01-24T07:51:07.169Z,102364.16
2023-01-24T07:52:09.048Z,102360.53
2023-01-24T07:53:10.904Z,102368.53
2023-01-24T07:54:12.738Z,102367.66
2023-01-24T07:55:14.609Z,102367.66
2023-01-24T07:56:25.332Z,102350.31
2023-01-24T07:57:27.790Z,102352.59
2023-01-24T07:58:30.741Z,102363.19
2023-01-24T07:59:38.571Z,102359.66
2023-01-24T08:00:41.497Z,102361.28
2023-01-24T08:01:43.324Z,102365.00
2023-01-24T08:02:45.938Z,102365.19
2023-01-24T08:03:47.770Z,102349.56
2023-01-24T08:04:49.557Z,102369.50
2023-01-24T08:05:51.531Z,102375.69
2023-01-24T08:07:11.795Z,102367.66
2023-01-24T08:08:13.797Z,102377.19
2023-01-24T08:09:15.635Z,102362.84
2023-01-24T08:10:17.584Z,102372.03
2023-01-24T08:11:19.624Z,102375.69
2023-01-24T08:12:22.520Z,102378.34
2023-01-24T08:13:24.400Z,102375.78
2023-01-24T08:14:26.183Z,102379.28
2023-01-24T08:15:29.973Z,102382.09
2023-01-24T08:16:32.493Z,102378.34
2023-01-24T08:17:37.872Z,102370.66
2023-01-24T08:18:40.450Z,102377.38
2023-01-24T08:19:56.368Z,102369.38
2023-01-24T08:20:59.069Z,102378.91
2023-01-24T08:22:00.912Z,102361.75
2023-01-24T08:23:02.747Z,102372.03
2023-01-24T08:24:04.856Z,102367.66
2023-01-24T08:25:07.390Z,102365.88
2023-01-24T08:26:09.196Z,102361.75
2023-01-24T08:27:10.969Z,102370.34
2023-01-24T08:28:12.763Z,102380.16
2023-01-24T08:29:14.629Z,102370.34
2023-01-24T08:30:17.046Z,102369.50
2023-01-24T08:31:18.909Z,102369.56
2023-01-24T08:32:21.122Z,102369.69
2023-01-24T08:33:23.028Z,102382.72
2023-01-24T08:34:24.890Z,102381.00
2023-01-24T08:35:26.631Z,102382.72
2023-01-24T08:36:28.456Z,102383.59
2023-01-24T08:37:30.365Z,102391.50
2023-01-24T08:38:32.200Z,102390.66
2023-01-24T08:39:34.083Z,102391.88
2023-01-24T08:40:48.684Z,102388.25
2023-01-24T08:41:51.488Z,102378.47
2023-01-24T08:42:53.535Z,102394.94
2023-01-24T08:43:55.442Z,102400.25
2023-01-24T08:44:57.219Z,102395.88
2023-01-24T08:45:59.066Z,102403.06
2023-01-24T08:47:01.053Z,102403.06
2023-01-24T08:48:02.970Z,102396.84
2023-01-24T08:49:04.895Z,102401.22
2023-01-24T08:50:07.389Z,102408.41
2023-01-24T08:51:09.159Z,102403.06
2023-01-24T08:52:11.379Z,102409.22
2023-01-24T08:53:13.486Z,102404.84
2023-01-24T08:54:16.146Z,102409.22
2023-01-24T08:55:17.985Z,102408.28
2023-01-24T08:56:19.901Z,102403.88
2023-01-24T08:57:21.715Z,102409.22
2023-01-24T08:58:23.594Z,102406.56
2023-01-24T08:59:25.525Z,102405.59
2023-01-24T09:00:27.432Z,102403.88
2023-01-24T09:01:29.507Z,102397.22
2023-01-24T09:02:33.429Z,102407.63
2023-01-24T09:03:35.664Z,102393.41
2023-01-24T09:04:37.436Z,102397.16
2023-01-24T09:05:39.712Z,102406.56
2023-01-24T09:06:41.870Z,102398.53
2023-01-24T09:07:43.817Z,102406.56
2023-01-24T09:08:45.663Z,102395.13
2023-01-24T09:09:47.473Z,102403.88
2023-01-24T09:10:49.249Z,102403.88
2023-01-24T09:11:51.028Z,102409.22
2023-01-24T09:12:52.873Z,102401.22
2023-01-24T09:13:54.660Z,102379.91
2023-01-24T09:14:56.455Z,102411.81
2023-01-24T09:15:59.894Z,102407.44
2023-01-24T09:17:01.805Z,102393.59
2023-01-24T09:18:03.862Z,102410.00
2023-01-24T09:19:05.733Z,102402.94
2023-01-24T09:20:08.555Z,102406.47
2023-01-24T09:21:10.818Z,102399.31
2023-01-24T09:22:12.657Z,102401.13
2023-01-24T09:23:15.492Z,102401.22
2023-01-24T09:24:17.477Z,102393.22
2023-01-24T09:25:19.316Z,102401.97
2023-01-24T09:26:21.787Z,102401.13
2023-01-24T09:27:23.618Z,102403.72
2023-01-24T09:28:25.508Z,102395.78
2023-01-24T09:29:27.278Z,102381.97
2023-01-24T09:30:29.601Z,102383.81
2023-01-24T09:31:31.812Z,102397.59
2023-01-24T09:32:33.760Z,102396.63
2023-01-24T09:33:37.096Z,102391.41
2023-01-24T09:34:46.896Z,102383.69
2023-01-24T09:35:58.087Z,102401.06
2023-01-24T09:37:00.243Z,102389.78
2023-01-24T09:38:02.020Z,102400.94
2023-01-24T09:39:06.228Z,102395.72
2023-01-24T09:40:36.062Z,102392.72
2023-01-24T09:42:11.483Z,102388.91
2023-01-24T09:43:31.883Z,102391.38
2023-01-24T09:45:06.260Z,102384.22
2023-01-24T09:46:11.187Z,102393.97
2023-01-24T09:47:21.413Z,102391.69
2023-01-24T09:48:23.813Z,102386.81
2023-01-24T09:49:48.396Z,102394.34
2023-01-24T09:50:53.537Z,102387.50
2023-01-24T09:51:55.764Z,102395.50
2023-01-24T09:52:59.995Z,102394.75
2023-01-24T09:54:05.003Z,102380.25
2023-01-24T09:55:18.083Z,102377.38
2023-01-24T09:56:31.595Z,102387.69
2023-01-24T09:57:46.942Z,102389.41
2023-01-24T09:59:00.244Z,102396.34
2023-01-24T10:00:15.579Z,102391.22
2023-01-24T10:01:17.382Z,102393.59
2023-01-24T10:02:21.611Z,102396.47
2023-01-24T10:03:25.030Z,102381.00
2023-01-24T10:04:33.417Z,102393.97
2023-01-24T10:05:49.028Z,102385.94
2023-01-24T10:07:19.701Z,102389.00
2023-01-24T10:08:38.631Z,102392.63
2023-01-24T10:10:00.679Z,102394.34
2023-01-24T10:11:24.331Z,102393.19
2023-01-24T10:12:53.129Z,102402.06
2023-01-24T10:14:27.012Z,102408.16
2023-01-24T10:15:43.201Z,102399.38
2023-01-24T10:17:15.717Z,102394.16
2023-01-24T10:18:55.510Z,102360.53
2023-01-24T10:20:24.084Z,102387.66
2023-01-24T10:21:37.983Z,102384.31
2023-01-24T10:22:51.939Z,102376.50
2023-01-24T10:24:00.370Z,102376.63
2023-01-24T10:25:12.464Z,102383.88
2023-01-24T10:26:20.418Z,102379.50
2023-01-24T10:27:32.763Z,102380.34
2023-01-24T10:28:42.200Z,102386.75
2023-01-24T10:29:46.434Z,102380.44
2023-01-24T10:31:01.250Z,102375.94
2023-01-24T10:32:14.523Z,102390.16
2023-01-24T10:33:19.036Z,102376.81
2023-01-24T10:34:47.194Z,102384.81
2023-01-24T10:35:55.187Z,102388.25
2023-01-24T10:37:03.318Z,102388.25
2023-01-24T10:38:11.797Z,102389.22
2023-01-24T10:39:14.157Z,102380.44
2023-01-24T10:40:17.521Z,102377.66
2023-01-24T10:41:25.868Z,102362.13
2023-01-24T10:42:31.140Z,102338.88
2023-01-24T10:43:33.939Z,102361.00
2023-01-24T10:44:37.739Z,102366.97
2023-01-24T10:45:58.409Z,102369.44
2023-01-24T10:47:27.246Z,102370.13
2023-01-24T10:48:46.591Z,102377.19
2023-01-24T10:50:03.242Z,102372.59
2023-01-24T10:51:17.278Z,102378.00
2023-01-24T10:52:20.773Z,102381.63
2023-01-24T10:53:29.411Z,102385.38
2023-01-24T10:54:43.004Z,102381.75
2023-01-24T10:55:48.414Z,102378.22
2023-01-24T10:56:50.176Z,102336.13
2023-01-24T10:57:56.072Z,102373.06
2023-01-24T10:59:07.561Z,102370.31
2023-01-24T11:00:28.275Z,102370.19
2023-01-24T11:01:44.463Z,102372.59
2023-01-24T11:02:50.485Z,102379.84
2023-01-24T11:03:53.745Z,102368.28
2023-01-24T11:05:04.624Z,102377.25
2023-01-24T11:06:39.819Z,102371.06
2023-01-24T11:07:47.912Z,102377.94
2023-01-24T11:09:02.906Z,102375.13
2023-01-24T11:10:21.132Z,102378.56
2023-01-24T11:11:30.383Z,102370.66
2023-01-24T11:12:32.174Z,102371.84
2023-01-24T11:13:38.356Z,102373.53
2023-01-24T11:14:40.433Z,102374.50
2023-01-24T11:15:49.619Z,102365.72
2023-01-24T11:16:54.385Z,102362.50
2023-01-24T11:17:59.410Z,102371.06
2023-01-24T11:19:07.036Z,102371.06
2023-01-24T11:20:28.071Z,102368.09
2023-01-24T11:21:31.225Z,102361.22
2023-01-24T11:22:37.089Z,102369.91
2023-01-24T11:23:40.031Z,102366.50
2023-01-24T11:24:46.071Z,102367.44
2023-01-24T11:25:59.570Z,102354.84
2023-01-24T11:27:16.414Z,102361.91
2023-01-24T11:28:32.586Z,102328.16
2023-01-24T11:29:34.944Z,102365.31
2023-01-24T11:30:39.113Z,102368.19
2023-01-24T11:31:45.787Z,102368.28
2023-01-24T11:33:00.657Z,102363.06
2023-01-24T11:34:15.342Z,102363.63
2023-01-24T11:35:27.738Z,102368.97
2023-01-24T11:36:53.079Z,102364.38
2023-01-24T11:38:20.448Z,102367.78
2023-01-24T11:39:25.007Z,102370.34
2023-01-24T11:40:48.339Z,102375.13
2023-01-24T11:41:57.984Z,102381.16
2023-01-24T11:43:09.843Z,102384.97
2023-01-24T11:44:48.867Z,102387.25
2023-01-24T11:46:07.215Z,102377.31
2023-01-24T11:47:37.415Z,102372.38
2023-01-24T11:48:56.035Z,102383.63
2023-01-24T11:50:18.282Z,102374.50
2023-01-24T11:51:22.916Z,102380.94
2023-01-24T11:52:46.588Z,102381.16
2023-01-24T11:54:17.755Z,102387.03
2023-01-24T11:55:46.747Z,102388.00
2023-01-24T11:57:03.258Z,102394.09
2023-01-24T11:58:16.882Z,102390.69
2023-01-24T11:59:24.445Z,102373.03
2023-01-24T12:00:39.685Z,102373.22
2023-01-24T12:02:04.413Z,102367.03
2023-01-24T12:03:34.894Z,102371.22
2023-01-24T12:05:09.873Z,102368.47
2023-01-24T12:06:23.516Z,102375.41
2023-01-24T12:07:33.981Z,102360.63
2023-01-24T12:08:35.796Z,102361.50
2023-01-24T12:09:45.140Z,102356.56
2023-01-24T12:11:00.615Z,102372.38
2023-01-24T12:12:19.131Z,102371.44
2023-01-24T12:13:30.870Z,102366.91
2023-01-24T12:15:00.917Z,102361.69
2023-01-24T12:16:21.118Z,102350.91
2023-01-24T12:17:38.795Z,102341.38
2023-01-24T12:18:55.687Z,102348.91
2023-01-24T12:20:30.750Z,102353.38
2023-01-24T12:21:33.940Z,102330.59
2023-01-24T12:22:35.935Z,102346.22
2023-01-24T12:23:52.771Z,102351.78
2023-01-24T12:25:13.179Z,102348.97
2023-01-24T12:26:20.367Z,102349.84
2023-01-24T12:27:26.421Z,102352.59
2023-01-24T12:28:35.569Z,102352.06
2023-01-24T12:30:00.512Z,102362.47
2023-01-24T12:31:05.779Z,102350.69
2023-01-24T12:32:31.437Z,102339.25
2023-01-24T12:33:41.144Z,102352.31
2023-01-24T12:34:52.665Z,102342.03
2023-01-24T12:36:01.579Z,102351.56
2023-01-24T12:37:27.907Z,102354.03
2023-01-24T12:38:40.239Z,102361.09
2023-01-24T12:40:01.786Z,102359.38
2023-01-24T12:41:10.723Z,102354.03
2023-01-24T12:42:25.005Z,102355.00
2023-01-24T12:43:51.898Z,102349.44
2023-01-24T12:45:01.386Z,102353.06
2023-01-24T12:46:13.415Z,102352.31